Westville, IL (61883)

9:35 PM CST on November 27, 2014 (GMT -0600)
Vermilion County Emergency Management Agency | Change Station
CLOSE
Current Station
Personal Weather Station
Location: Danville, IL
Elevation: 655 ft
Nearby Weather Stations

Elev 655 ft 40.08 °N, 87.63 °W | Updated 10 seconds ago

Mostly Cloudy
Mostly Cloudy
24.3 °F
Feels Like 24 °F
N
0.0
Wind Variable Wind from West
Gusts 0.1 mph

Today
High -- | Low -- °F
--% Chance of Precip.
Yesterday
High -- | Low -- °F
Precip. -- in
6:49 AM 4:26 PM
Waxing Crescent, 36% visible
Pressure 30.39 in
Visibility 10.0 miles
Clouds Overcast 3100 ft
Windchill 24 °F
Dew Point 24 °F
Humidity 100%
Rainfall 0.00 in
Snow Depth Not available.
UV 0 out of 12
Pollen .10 out of 12
Air Quality Not available.
Flu Activity Not available.
METAR KDNV 280315Z AUTO 30003KT 10SM OVC031 M05/M09 A3039 RMK AO2 T10531095

More Conditions Fewer Conditions

Pressure 30.39 in
Visibility 10.0 miles
Clouds Overcast 3100 ft
Windchill 24 °F
Dew Point 24 °F
Humidity 100%
Rainfall 0.00 in
Snow Depth Not available.
UV 0 out of 12
Pollen .10 out of 12
Air Quality Not available.
Flu Activity Not available.
METAR KDNV 280315Z AUTO 30003KT 10SM OVC031 M05/M09 A3039 RMK AO2 T10531095

More Conditions Fewer Conditions

10-Day Weather Forecast

Almanac

Astronomy

Nov. 27, 2014 Rise Set
Actual Time
Civil Twilight
Nautical Twilight
Astronomical Twilight
Moon
Length of Visible Light
Length of Day
Tomorrow will be .
, % of the Moon is Illuminated

Today's Extremes

State Highs State Lows

Community

WunderPhotos

Upload Photos

1,774,168 photos uploaded!

WunderBlogs® & News

Nearby

Air Quality

  Air Quality AQ Index Pollutant
Not available.

Snow Depth

Station Depth Elevation

Earthquake Activity

City Distance Mag. Time & Date
Minimum magnitude displayed is 2.5.

Coastal Water Temperatures

Place Temperature

Nearby Weather Stations